sensor_id;sensor_type;location;lat;lon;timestamp;temperature;humidity
16744;DHT22;71724;-33.900;151.182;2024-02-04T00:00:17;27.80;69.50
16744;DHT22;71724;-33.900;151.182;2024-02-04T00:02:45;27.80;69.40
16744;DHT22;71724;-33.900;151.182;2024-02-04T00:05:12;27.90;69.10
16744;DHT22;71724;-33.900;151.182;2024-02-04T00:07:40;28.00;69.10
16744;DHT22;71724;-33.900;151.182;2024-02-04T00:10:07;28.00;69.30
16744;DHT22;71724;-33.900;151.182;2024-02-04T00:12:35;28.10;69.00
16744;DHT22;71724;-33.900;151.182;2024-02-04T00:15:07;28.10;69.00
16744;DHT22;71724;-33.900;151.182;2024-02-04T00:17:34;28.20;68.90
16744;DHT22;71724;-33.900;151.182;2024-02-04T00:20:03;28.20;68.30
16744;DHT22;71724;-33.900;151.182;2024-02-04T00:22:33;28.20;68.60
16744;DHT22;71724;-33.900;151.182;2024-02-04T00:25:01;28.20;68.30
16744;DHT22;71724;-33.900;151.182;2024-02-04T00:27:34;28.30;67.70
16744;DHT22;71724;-33.900;151.182;2024-02-04T00:30:02;28.30;67.60
16744;DHT22;71724;-33.900;151.182;2024-02-04T00:32:29;28.40;67.10
16744;DHT22;71724;-33.900;151.182;2024-02-04T00:34:56;28.40;66.50
16744;DHT22;71724;-33.900;151.182;2024-02-04T00:37:25;28.50;66.90
16744;DHT22;71724;-33.900;151.182;2024-02-04T00:39:52;28.50;67.30
16744;DHT22;71724;-33.900;151.182;2024-02-04T00:42:20;28.50;67.20
16744;DHT22;71724;-33.900;151.182;2024-02-04T00:44:47;28.50;67.40
16744;DHT22;71724;-33.900;151.182;2024-02-04T00:47:14;28.60;67.50
16744;DHT22;71724;-33.900;151.182;2024-02-04T00:49:42;28.70;67.40
16744;DHT22;71724;-33.900;151.182;2024-02-04T00:52:09;28.80;67.20
16744;DHT22;71724;-33.900;151.182;2024-02-04T00:54:37;28.80;67.10
16744;DHT22;71724;-33.900;151.182;2024-02-04T00:57:04;28.80;66.70
16744;DHT22;71724;-33.900;151.182;2024-02-04T00:59:31;28.90;66.30
16744;DHT22;71724;-33.900;151.182;2024-02-04T01:01:59;28.90;66.30
16744;DHT22;71724;-33.900;151.182;2024-02-04T01:04:27;29.00;66.20
16744;DHT22;71724;-33.900;151.182;2024-02-04T01:06:55;29.00;65.80
16744;DHT22;71724;-33.900;151.182;2024-02-04T01:09:22;29.00;65.80
16744;DHT22;71724;-33.900;151.182;2024-02-04T01:11:50;29.10;65.70
16744;DHT22;71724;-33.900;151.182;2024-02-04T01:14:19;29.10;65.80
16744;DHT22;71724;-33.900;151.182;2024-02-04T01:16:46;29.20;65.60
16744;DHT22;71724;-33.900;151.182;2024-02-04T01:19:14;29.20;65.30
16744;DHT22;71724;-33.900;151.182;2024-02-04T01:21:41;29.20;65.30
16744;DHT22;71724;-33.900;151.182;2024-02-04T01:24:10;29.20;65.30
16744;DHT22;71724;-33.900;151.182;2024-02-04T01:26:38;29.20;65.20
16744;DHT22;71724;-33.900;151.182;2024-02-04T01:29:05;29.20;65.20
16744;DHT22;71724;-33.900;151.182;2024-02-04T01:31:32;29.30;65.50
16744;DHT22;71724;-33.900;151.182;2024-02-04T01:34:02;29.30;65.00
16744;DHT22;71724;-33.900;151.182;2024-02-04T01:36:29;29.50;64.40
16744;DHT22;71724;-33.900;151.182;2024-02-04T01:38:57;29.50;64.30
16744;DHT22;71724;-33.900;151.182;2024-02-04T01:41:24;29.50;64.30
16744;DHT22;71724;-33.900;151.182;2024-02-04T01:43:55;29.50;64.10
16744;DHT22;71724;-33.900;151.182;2024-02-04T01:46:22;29.60;64.20
16744;DHT22;71724;-33.900;151.182;2024-02-04T01:48:50;29.60;64.00
16744;DHT22;71724;-33.900;151.182;2024-02-04T01:51:19;29.70;63.80
16744;DHT22;71724;-33.900;151.182;2024-02-04T01:53:48;29.80;63.50
16744;DHT22;71724;-33.900;151.182;2024-02-04T01:56:16;29.80;63.60
16744;DHT22;71724;-33.900;151.182;2024-02-04T01:58:44;29.80;63.50
16744;DHT22;71724;-33.900;151.182;2024-02-04T02:01:13;29.90;63.60
16744;DHT22;71724;-33.900;151.182;2024-02-04T02:03:41;29.90;63.50
16744;DHT22;71724;-33.900;151.182;2024-02-04T02:06:10;29.90;63.10
16744;DHT22;71724;-33.900;151.182;2024-02-04T02:08:40;29.90;63.10
16744;DHT22;71724;-33.900;151.182;2024-02-04T02:12:00;29.80;63.20
16744;DHT22;71724;-33.900;151.182;2024-02-04T02:14:04;29.80;63.10
16744;DHT22;71724;-33.900;151.182;2024-02-04T02:16:34;29.70;63.30
16744;DHT22;71724;-33.900;151.182;2024-02-04T02:22:15;29.60;63.70
16744;DHT22;71724;-33.900;151.182;2024-02-04T02:24:39;29.50;64.00
16744;DHT22;71724;-33.900;151.182;2024-02-04T02:27:09;29.60;64.10
16744;DHT22;71724;-33.900;151.182;2024-02-04T02:29:36;29.60;63.90
16744;DHT22;71724;-33.900;151.182;2024-02-04T02:32:07;29.60;64.00
16744;DHT22;71724;-33.900;151.182;2024-02-04T02:34:34;29.60;64.10
16744;DHT22;71724;-33.900;151.182;2024-02-04T02:39:48;29.60;64.10
16744;DHT22;71724;-33.900;151.182;2024-02-04T02:42:17;29.70;64.10
16744;DHT22;71724;-33.900;151.182;2024-02-04T02:44:46;29.70;64.10
16744;DHT22;71724;-33.900;151.182;2024-02-04T02:47:15;29.70;64.00
16744;DHT22;71724;-33.900;151.182;2024-02-04T02:49:42;29.70;64.00
16744;DHT22;71724;-33.900;151.182;2024-02-04T02:52:15;29.60;64.00
16744;DHT22;71724;-33.900;151.182;2024-02-04T02:54:42;29.60;64.00
16744;DHT22;71724;-33.900;151.182;2024-02-04T02:57:09;29.40;64.20
16744;DHT22;71724;-33.900;151.182;2024-02-04T02:59:37;29.40;64.30
16744;DHT22;71724;-33.900;151.182;2024-02-04T03:02:05;29.50;64.00
16744;DHT22;71724;-33.900;151.182;2024-02-04T03:04:32;29.40;64.00
16744;DHT22;71724;-33.900;151.182;2024-02-04T03:07:00;29.40;64.10
16744;DHT22;71724;-33.900;151.182;2024-02-04T03:09:27;29.30;64.20
16744;DHT22;71724;-33.900;151.182;2024-02-04T03:11:55;29.30;64.20
16744;DHT22;71724;-33.900;151.182;2024-02-04T03:14:22;29.20;64.40
16744;DHT22;71724;-33.900;151.182;2024-02-04T03:16:50;29.30;64.50
16744;DHT22;71724;-33.900;151.182;2024-02-04T03:19:18;29.30;64.80
16744;DHT22;71724;-33.900;151.182;2024-02-04T03:21:46;29.30;64.50
16744;DHT22;71724;-33.900;151.182;2024-02-04T03:24:14;29.40;64.40
16744;DHT22;71724;-33.900;151.182;2024-02-04T03:26:41;29.50;64.60
16744;DHT22;71724;-33.900;151.182;2024-02-04T03:29:08;29.50;64.00
16744;DHT22;71724;-33.900;151.182;2024-02-04T03:31:39;29.50;63.60
16744;DHT22;71724;-33.900;151.182;2024-02-04T03:34:06;29.50;63.60
16744;DHT22;71724;-33.900;151.182;2024-02-04T03:36:33;29.50;63.30
16744;DHT22;71724;-33.900;151.182;2024-02-04T03:39:04;29.40;63.20
16744;DHT22;71724;-33.900;151.182;2024-02-04T03:41:35;29.40;63.30
16744;DHT22;71724;-33.900;151.182;2024-02-04T03:44:06;29.40;63.50
16744;DHT22;71724;-33.900;151.182;2024-02-04T03:46:34;29.40;63.20
16744;DHT22;71724;-33.900;151.182;2024-02-04T03:49:02;29.40;63.20
16744;DHT22;71724;-33.900;151.182;2024-02-04T03:51:29;29.40;63.30
16744;DHT22;71724;-33.900;151.182;2024-02-04T03:53:56;29.50;63.50
16744;DHT22;71724;-33.900;151.182;2024-02-04T03:56:24;29.50;63.30
16744;DHT22;71724;-33.900;151.182;2024-02-04T03:58:51;29.50;63.40
16744;DHT22;71724;-33.900;151.182;2024-02-04T04:01:19;29.60;63.10
16744;DHT22;71724;-33.900;151.182;2024-02-04T04:03:46;29.80;62.80
16744;DHT22;71724;-33.900;151.182;2024-02-04T04:06:13;29.70;62.60
16744;DHT22;71724;-33.900;151.182;2024-02-04T04:08:42;29.80;62.70
16744;DHT22;71724;-33.900;151.182;2024-02-04T04:11:10;29.80;62.80
16744;DHT22;71724;-33.900;151.182;2024-02-04T04:13:38;29.80;62.70
16744;DHT22;71724;-33.900;151.182;2024-02-04T04:16:07;29.80;62.70
16744;DHT22;71724;-33.900;151.182;2024-02-04T04:18:34;29.90;62.50
16744;DHT22;71724;-33.900;151.182;2024-02-04T04:21:02;29.90;62.50
16744;DHT22;71724;-33.900;151.182;2024-02-04T04:23:29;30.00;62.60
16744;DHT22;71724;-33.900;151.182;2024-02-04T04:25:56;30.00;62.40
16744;DHT22;71724;-33.900;151.182;2024-02-04T04:28:24;30.00;62.30
16744;DHT22;71724;-33.900;151.182;2024-02-04T04:30:51;30.00;62.20
16744;DHT22;71724;-33.900;151.182;2024-02-04T04:33:19;30.00;62.20
16744;DHT22;71724;-33.900;151.182;2024-02-04T04:35:46;30.00;62.40
16744;DHT22;71724;-33.900;151.182;2024-02-04T04:38:14;30.00;62.30
16744;DHT22;71724;-33.900;151.182;2024-02-04T04:40:41;30.10;62.50
16744;DHT22;71724;-33.900;151.182;2024-02-04T04:43:08;30.00;62.50
16744;DHT22;71724;-33.900;151.182;2024-02-04T04:45:39;30.10;62.60
16744;DHT22;71724;-33.900;151.182;2024-02-04T04:48:07;30.10;62.80
16744;DHT22;71724;-33.900;151.182;2024-02-04T04:50:36;30.10;62.50
16744;DHT22;71724;-33.900;151.182;2024-02-04T04:53:03;30.10;62.70
16744;DHT22;71724;-33.900;151.182;2024-02-04T04:55:31;30.10;62.70
16744;DHT22;71724;-33.900;151.182;2024-02-04T04:57:58;30.10;62.90
16744;DHT22;71724;-33.900;151.182;2024-02-04T05:00:25;30.00;63.00
16744;DHT22;71724;-33.900;151.182;2024-02-04T05:02:53;29.90;63.30
16744;DHT22;71724;-33.900;151.182;2024-02-04T05:05:23;29.80;63.40
16744;DHT22;71724;-33.900;151.182;2024-02-04T05:07:50;29.80;63.40
16744;DHT22;71724;-33.900;151.182;2024-02-04T05:10:18;29.80;63.40
16744;DHT22;71724;-33.900;151.182;2024-02-04T05:12:46;29.80;63.40
16744;DHT22;71724;-33.900;151.182;2024-02-04T05:15:13;29.90;63.30
16744;DHT22;71724;-33.900;151.182;2024-02-04T05:17:41;29.90;62.90
16744;DHT22;71724;-33.900;151.182;2024-02-04T05:20:08;29.90;62.80
16744;DHT22;71724;-33.900;151.182;2024-02-04T05:22:36;29.90;62.70
16744;DHT22;71724;-33.900;151.182;2024-02-04T05:25:04;30.00;62.90
16744;DHT22;71724;-33.900;151.182;2024-02-04T05:27:33;30.00;63.10
16744;DHT22;71724;-33.900;151.182;2024-02-04T05:30:02;29.90;63.20
16744;DHT22;71724;-33.900;151.182;2024-02-04T05:32:29;29.80;63.00
16744;DHT22;71724;-33.900;151.182;2024-02-04T05:35:00;29.80;63.30
16744;DHT22;71724;-33.900;151.182;2024-02-04T05:37:28;29.80;63.60
16744;DHT22;71724;-33.900;151.182;2024-02-04T05:39:56;29.70;63.60
16744;DHT22;71724;-33.900;151.182;2024-02-04T05:42:26;29.60;63.70
16744;DHT22;71724;-33.900;151.182;2024-02-04T05:44:54;29.60;63.80
16744;DHT22;71724;-33.900;151.182;2024-02-04T05:47:21;29.60;63.90
16744;DHT22;71724;-33.900;151.182;2024-02-04T05:49:49;29.50;64.10
16744;DHT22;71724;-33.900;151.182;2024-02-04T05:52:16;29.50;64.30
16744;DHT22;71724;-33.900;151.182;2024-02-04T05:54:43;29.40;64.80
16744;DHT22;71724;-33.900;151.182;2024-02-04T05:57:11;29.30;64.90
16744;DHT22;71724;-33.900;151.182;2024-02-04T05:59:39;29.30;65.20
16744;DHT22;71724;-33.900;151.182;2024-02-04T06:02:06;29.30;65.30
16744;DHT22;71724;-33.900;151.182;2024-02-04T06:04:33;29.30;65.60
16744;DHT22;71724;-33.900;151.182;2024-02-04T06:07:03;29.30;65.80
16744;DHT22;71724;-33.900;151.182;2024-02-04T06:09:31;29.30;66.30
16744;DHT22;71724;-33.900;151.182;2024-02-04T06:12:00;29.30;66.20
16744;DHT22;71724;-33.900;151.182;2024-02-04T06:14:27;29.30;66.70
16744;DHT22;71724;-33.900;151.182;2024-02-04T06:16:54;29.30;67.10
16744;DHT22;71724;-33.900;151.182;2024-02-04T06:19:22;29.30;67.70
16744;DHT22;71724;-33.900;151.182;2024-02-04T06:21:49;29.30;67.70
16744;DHT22;71724;-33.900;151.182;2024-02-04T06:24:16;29.30;67.90
16744;DHT22;71724;-33.900;151.182;2024-02-04T06:26:57;29.40;68.20
16744;DHT22;71724;-33.900;151.182;2024-02-04T06:29:23;29.30;68.00
16744;DHT22;71724;-33.900;151.182;2024-02-04T06:31:51;29.30;68.30
16744;DHT22;71724;-33.900;151.182;2024-02-04T06:34:23;29.20;68.50
16744;DHT22;71724;-33.900;151.182;2024-02-04T06:36:51;29.10;68.80
16744;DHT22;71724;-33.900;151.182;2024-02-04T06:39:21;29.10;69.20
16744;DHT22;71724;-33.900;151.182;2024-02-04T06:41:49;29.10;69.60
16744;DHT22;71724;-33.900;151.182;2024-02-04T06:44:16;29.00;69.90
16744;DHT22;71724;-33.900;151.182;2024-02-04T06:46:44;29.00;70.00
16744;DHT22;71724;-33.900;151.182;2024-02-04T06:49:15;29.00;69.90
16744;DHT22;71724;-33.900;151.182;2024-02-04T06:51:45;29.00;70.10
16744;DHT22;71724;-33.900;151.182;2024-02-04T06:54:12;29.00;70.10
16744;DHT22;71724;-33.900;151.182;2024-02-04T06:56:40;29.00;70.00
16744;DHT22;71724;-33.900;151.182;2024-02-04T06:59:07;29.00;70.20
16744;DHT22;71724;-33.900;151.182;2024-02-04T07:01:35;29.10;70.10
16744;DHT22;71724;-33.900;151.182;2024-02-04T07:04:04;29.10;70.00
16744;DHT22;71724;-33.900;151.182;2024-02-04T07:06:31;29.00;70.30
16744;DHT22;71724;-33.900;151.182;2024-02-04T07:09:06;29.00;70.20
16744;DHT22;71724;-33.900;151.182;2024-02-04T07:11:34;29.00;70.30
16744;DHT22;71724;-33.900;151.182;2024-02-04T07:14:07;29.00;70.30
16744;DHT22;71724;-33.900;151.182;2024-02-04T07:16:35;29.00;70.20
16744;DHT22;71724;-33.900;151.182;2024-02-04T07:19:02;29.00;70.10
16744;DHT22;71724;-33.900;151.182;2024-02-04T07:21:30;29.10;70.00
16744;DHT22;71724;-33.900;151.182;2024-02-04T07:24:01;29.10;70.00
16744;DHT22;71724;-33.900;151.182;2024-02-04T07:26:29;29.10;70.00
16744;DHT22;71724;-33.900;151.182;2024-02-04T07:28:56;29.10;69.70
16744;DHT22;71724;-33.900;151.182;2024-02-04T07:31:24;29.10;69.90
16744;DHT22;71724;-33.900;151.182;2024-02-04T07:33:52;29.00;69.90
16744;DHT22;71724;-33.900;151.182;2024-02-04T07:36:25;29.00;69.90
16744;DHT22;71724;-33.900;151.182;2024-02-04T07:38:59;28.90;70.00
16744;DHT22;71724;-33.900;151.182;2024-02-04T07:41:27;28.80;70.20
16744;DHT22;71724;-33.900;151.182;2024-02-04T07:43:54;28.80;70.40
16744;DHT22;71724;-33.900;151.182;2024-02-04T07:46:22;28.90;70.20
16744;DHT22;71724;-33.900;151.182;2024-02-04T07:48:50;28.80;70.40
16744;DHT22;71724;-33.900;151.182;2024-02-04T07:51:17;28.80;70.40
16744;DHT22;71724;-33.900;151.182;2024-02-04T07:53:45;28.80;70.90
16744;DHT22;71724;-33.900;151.182;2024-02-04T07:56:12;28.80;70.80
16744;DHT22;71724;-33.900;151.182;2024-02-04T07:58:39;28.80;71.00
16744;DHT22;71724;-33.900;151.182;2024-02-04T08:01:09;28.70;71.20
16744;DHT22;71724;-33.900;151.182;2024-02-04T08:03:36;28.80;71.30
16744;DHT22;71724;-33.900;151.182;2024-02-04T08:06:04;28.70;71.40
16744;DHT22;71724;-33.900;151.182;2024-02-04T08:08:31;28.70;71.70
16744;DHT22;71724;-33.900;151.182;2024-02-04T08:10:59;28.60;71.70
16744;DHT22;71724;-33.900;151.182;2024-02-04T08:13:26;28.60;71.80
16744;DHT22;71724;-33.900;151.182;2024-02-04T08:15:53;28.60;72.10
16744;DHT22;71724;-33.900;151.182;2024-02-04T08:18:21;28.60;72.10
16744;DHT22;71724;-33.900;151.182;2024-02-04T08:20:48;28.50;72.10
16744;DHT22;71724;-33.900;151.182;2024-02-04T08:23:16;28.50;72.20
16744;DHT22;71724;-33.900;151.182;2024-02-04T08:25:44;28.50;72.60
16744;DHT22;71724;-33.900;151.182;2024-02-04T08:28:12;28.40;72.80
16744;DHT22;71724;-33.900;151.182;2024-02-04T08:30:40;28.30;73.00
16744;DHT22;71724;-33.900;151.182;2024-02-04T08:33:07;28.40;73.10
16744;DHT22;71724;-33.900;151.182;2024-02-04T08:35:35;28.30;73.10
16744;DHT22;71724;-33.900;151.182;2024-02-04T08:38:02;28.30;73.40
16744;DHT22;71724;-33.900;151.182;2024-02-04T08:40:30;28.30;73.50
16744;DHT22;71724;-33.900;151.182;2024-02-04T08:42:59;28.30;73.70
16744;DHT22;71724;-33.900;151.182;2024-02-04T08:45:27;28.30;74.00
16744;DHT22;71724;-33.900;151.182;2024-02-04T08:47:54;28.30;74.00
16744;DHT22;71724;-33.900;151.182;2024-02-04T08:50:21;28.20;74.10
16744;DHT22;71724;-33.900;151.182;2024-02-04T08:52:49;28.20;74.40
16744;DHT22;71724;-33.900;151.182;2024-02-04T08:55:22;28.20;74.40
16744;DHT22;71724;-33.900;151.182;2024-02-04T08:57:52;28.20;74.60
16744;DHT22;71724;-33.900;151.182;2024-02-04T09:00:20;28.30;74.20
16744;DHT22;71724;-33.900;151.182;2024-02-04T09:02:48;28.20;74.50
16744;DHT22;71724;-33.900;151.182;2024-02-04T09:05:15;28.20;74.60
16744;DHT22;71724;-33.900;151.182;2024-02-04T09:07:44;28.10;74.90
16744;DHT22;71724;-33.900;151.182;2024-02-04T09:10:12;28.10;75.30
16744;DHT22;71724;-33.900;151.182;2024-02-04T09:12:39;28.10;75.10
16744;DHT22;71724;-33.900;151.182;2024-02-04T09:15:07;28.00;75.10
16744;DHT22;71724;-33.900;151.182;2024-02-04T09:17:35;28.00;75.30
16744;DHT22;71724;-33.900;151.182;2024-02-04T09:20:03;28.00;75.50
16744;DHT22;71724;-33.900;151.182;2024-02-04T09:22:31;28.00;75.60
16744;DHT22;71724;-33.900;151.182;2024-02-04T09:24:59;28.00;75.60
16744;DHT22;71724;-33.900;151.182;2024-02-04T09:27:26;28.00;75.60
16744;DHT22;71724;-33.900;151.182;2024-02-04T09:29:53;27.90;76.00
16744;DHT22;71724;-33.900;151.182;2024-02-04T09:32:22;27.90;76.40
16744;DHT22;71724;-33.900;151.182;2024-02-04T09:34:52;27.90;76.40
16744;DHT22;71724;-33.900;151.182;2024-02-04T09:37:19;27.90;76.60
16744;DHT22;71724;-33.900;151.182;2024-02-04T09:39:46;27.80;77.00
16744;DHT22;71724;-33.900;151.182;2024-02-04T09:42:19;27.80;76.80
16744;DHT22;71724;-33.900;151.182;2024-02-04T09:44:50;27.80;77.00
16744;DHT22;71724;-33.900;151.182;2024-02-04T09:47:17;27.80;77.20
16744;DHT22;71724;-33.900;151.182;2024-02-04T09:49:45;27.80;77.30
16744;DHT22;71724;-33.900;151.182;2024-02-04T09:52:13;27.70;77.40
16744;DHT22;71724;-33.900;151.182;2024-02-04T09:54:45;27.70;77.60
16744;DHT22;71724;-33.900;151.182;2024-02-04T09:57:13;27.70;77.70
16744;DHT22;71724;-33.900;151.182;2024-02-04T09:59:41;27.70;77.70
16744;DHT22;71724;-33.900;151.182;2024-02-04T10:02:10;27.70;78.00
16744;DHT22;71724;-33.900;151.182;2024-02-04T10:04:39;27.60;77.80
16744;DHT22;71724;-33.900;151.182;2024-02-04T10:07:06;27.60;78.00
16744;DHT22;71724;-33.900;151.182;2024-02-04T10:09:34;27.60;78.20
16744;DHT22;71724;-33.900;151.182;2024-02-04T10:12:01;27.60;78.20
16744;DHT22;71724;-33.900;151.182;2024-02-04T10:14:29;27.50;78.40
16744;DHT22;71724;-33.900;151.182;2024-02-04T10:16:57;27.60;78.30
16744;DHT22;71724;-33.900;151.182;2024-02-04T10:19:27;27.50;78.50
16744;DHT22;71724;-33.900;151.182;2024-02-04T10:22:04;27.50;78.70
16744;DHT22;71724;-33.900;151.182;2024-02-04T10:24:31;27.50;78.60
16744;DHT22;71724;-33.900;151.182;2024-02-04T10:26:58;27.50;78.60
16744;DHT22;71724;-33.900;151.182;2024-02-04T10:29:26;27.40;78.60
16744;DHT22;71724;-33.900;151.182;2024-02-04T10:31:54;27.40;78.40
16744;DHT22;71724;-33.900;151.182;2024-02-04T10:34:23;27.40;78.70
16744;DHT22;71724;-33.900;151.182;2024-02-04T10:36:53;27.40;78.80
16744;DHT22;71724;-33.900;151.182;2024-02-04T10:39:20;27.40;78.90
16744;DHT22;71724;-33.900;151.182;2024-02-04T10:41:52;27.40;78.80
16744;DHT22;71724;-33.900;151.182;2024-02-04T10:44:24;27.40;79.10
16744;DHT22;71724;-33.900;151.182;2024-02-04T10:46:52;27.40;79.20
16744;DHT22;71724;-33.900;151.182;2024-02-04T10:49:20;27.40;79.10
16744;DHT22;71724;-33.900;151.182;2024-02-04T10:51:48;27.30;79.10
16744;DHT22;71724;-33.900;151.182;2024-02-04T10:54:17;27.40;79.10
16744;DHT22;71724;-33.900;151.182;2024-02-04T10:56:58;27.30;79.20
16744;DHT22;71724;-33.900;151.182;2024-02-04T10:59:31;27.40;79.30
16744;DHT22;71724;-33.900;151.182;2024-02-04T11:01:59;27.30;79.50
16744;DHT22;71724;-33.900;151.182;2024-02-04T11:04:27;27.30;79.50
16744;DHT22;71724;-33.900;151.182;2024-02-04T11:06:56;27.30;79.70
16744;DHT22;71724;-33.900;151.182;2024-02-04T11:09:25;27.30;79.80
16744;DHT22;71724;-33.900;151.182;2024-02-04T11:11:56;27.30;79.70
16744;DHT22;71724;-33.900;151.182;2024-02-04T11:14:26;27.30;79.70
16744;DHT22;71724;-33.900;151.182;2024-02-04T11:22:29;27.30;79.80
16744;DHT22;71724;-33.900;151.182;2024-02-04T11:27:54;27.30;79.90
16744;DHT22;71724;-33.900;151.182;2024-02-04T11:30:23;27.30;79.80
16744;DHT22;71724;-33.900;151.182;2024-02-04T11:32:51;27.30;79.80
16744;DHT22;71724;-33.900;151.182;2024-02-04T11:35:20;27.30;79.90
16744;DHT22;71724;-33.900;151.182;2024-02-04T11:37:49;27.30;79.80
16744;DHT22;71724;-33.900;151.182;2024-02-04T11:40:16;27.30;79.90
16744;DHT22;71724;-33.900;151.182;2024-02-04T11:42:45;27.30;80.00
16744;DHT22;71724;-33.900;151.182;2024-02-04T11:45:14;27.40;80.00
16744;DHT22;71724;-33.900;151.182;2024-02-04T11:47:41;27.40;80.00
16744;DHT22;71724;-33.900;151.182;2024-02-04T11:50:09;27.30;80.30
16744;DHT22;71724;-33.900;151.182;2024-02-04T11:52:37;27.30;79.80
16744;DHT22;71724;-33.900;151.182;2024-02-04T11:55:05;27.30;79.80
16744;DHT22;71724;-33.900;151.182;2024-02-04T11:57:34;27.30;79.90
16744;DHT22;71724;-33.900;151.182;2024-02-04T12:00:01;27.30;79.90
16744;DHT22;71724;-33.900;151.182;2024-02-04T12:02:32;27.30;79.90
16744;DHT22;71724;-33.900;151.182;2024-02-04T12:05:00;27.30;79.90
16744;DHT22;71724;-33.900;151.182;2024-02-04T12:07:28;27.30;79.90
16744;DHT22;71724;-33.900;151.182;2024-02-04T12:09:56;27.30;79.90
16744;DHT22;71724;-33.900;151.182;2024-02-04T12:12:24;27.30;80.00
16744;DHT22;71724;-33.900;151.182;2024-02-04T12:14:53;27.30;79.90
16744;DHT22;71724;-33.900;151.182;2024-02-04T12:17:20;27.30;79.90
16744;DHT22;71724;-33.900;151.182;2024-02-04T12:19:48;27.30;79.90
16744;DHT22;71724;-33.900;151.182;2024-02-04T12:22:16;27.30;79.90
16744;DHT22;71724;-33.900;151.182;2024-02-04T12:24:44;27.30;80.00
16744;DHT22;71724;-33.900;151.182;2024-02-04T12:27:15;27.30;80.00
16744;DHT22;71724;-33.900;151.182;2024-02-04T12:29:43;27.30;79.90
16744;DHT22;71724;-33.900;151.182;2024-02-04T12:32:14;27.30;80.00
16744;DHT22;71724;-33.900;151.182;2024-02-04T12:34:46;27.30;80.10
16744;DHT22;71724;-33.900;151.182;2024-02-04T12:37:13;27.30;79.90
16744;DHT22;71724;-33.900;151.182;2024-02-04T12:39:41;27.30;79.80
16744;DHT22;71724;-33.900;151.182;2024-02-04T12:42:08;27.30;79.80
16744;DHT22;71724;-33.900;151.182;2024-02-04T12:44:36;27.30;79.80
16744;DHT22;71724;-33.900;151.182;2024-02-04T12:47:03;27.20;79.80
16744;DHT22;71724;-33.900;151.182;2024-02-04T12:49:31;27.20;79.80
16744;DHT22;71724;-33.900;151.182;2024-02-04T12:52:05;27.20;79.80
16744;DHT22;71724;-33.900;151.182;2024-02-04T12:54:43;27.30;79.80
16744;DHT22;71724;-33.900;151.182;2024-02-04T12:57:21;27.30;79.70
16744;DHT22;71724;-33.900;151.182;2024-02-04T12:59:48;27.20;79.70
16744;DHT22;71724;-33.900;151.182;2024-02-04T13:02:16;27.30;79.80
16744;DHT22;71724;-33.900;151.182;2024-02-04T13:04:43;27.20;79.80
16744;DHT22;71724;-33.900;151.182;2024-02-04T13:07:14;27.20;79.80
16744;DHT22;71724;-33.900;151.182;2024-02-04T13:09:43;27.20;79.70
16744;DHT22;71724;-33.900;151.182;2024-02-04T13:12:15;27.20;79.70
16744;DHT22;71724;-33.900;151.182;2024-02-04T13:14:43;27.20;79.60
16744;DHT22;71724;-33.900;151.182;2024-02-04T13:17:11;27.20;79.70
16744;DHT22;71724;-33.900;151.182;2024-02-04T13:19:39;27.20;79.50
16744;DHT22;71724;-33.900;151.182;2024-02-04T13:22:07;27.10;79.50
16744;DHT22;71724;-33.900;151.182;2024-02-04T13:24:37;27.10;79.50
16744;DHT22;71724;-33.900;151.182;2024-02-04T13:27:06;27.10;79.50
16744;DHT22;71724;-33.900;151.182;2024-02-04T13:29:37;27.10;79.50
16744;DHT22;71724;-33.900;151.182;2024-02-04T13:32:04;27.10;79.50
16744;DHT22;71724;-33.900;151.182;2024-02-04T13:34:32;27.10;79.50
16744;DHT22;71724;-33.900;151.182;2024-02-04T13:36:59;27.10;79.50
16744;DHT22;71724;-33.900;151.182;2024-02-04T13:39:27;27.10;79.50
16744;DHT22;71724;-33.900;151.182;2024-02-04T13:41:54;27.10;79.40
16744;DHT22;71724;-33.900;151.182;2024-02-04T13:44:22;27.10;79.50
16744;DHT22;71724;-33.900;151.182;2024-02-04T13:46:49;27.10;79.40
16744;DHT22;71724;-33.900;151.182;2024-02-04T13:49:16;27.10;79.50
16744;DHT22;71724;-33.900;151.182;2024-02-04T13:51:44;27.10;79.40
16744;DHT22;71724;-33.900;151.182;2024-02-04T13:54:11;27.00;79.50
16744;DHT22;71724;-33.900;151.182;2024-02-04T13:56:42;27.00;79.50
16744;DHT22;71724;-33.900;151.182;2024-02-04T13:59:09;27.00;79.50
16744;DHT22;71724;-33.900;151.182;2024-02-04T14:01:37;27.00;79.50
16744;DHT22;71724;-33.900;151.182;2024-02-04T14:04:04;27.00;79.60
16744;DHT22;71724;-33.900;151.182;2024-02-04T14:06:32;27.00;79.60
16744;DHT22;71724;-33.900;151.182;2024-02-04T14:08:59;27.00;79.60
16744;DHT22;71724;-33.900;151.182;2024-02-04T14:11:27;27.00;79.70
16744;DHT22;71724;-33.900;151.182;2024-02-04T14:13:54;27.00;79.60
16744;DHT22;71724;-33.900;151.182;2024-02-04T14:16:21;27.00;79.60
16744;DHT22;71724;-33.900;151.182;2024-02-04T14:18:49;27.00;79.60
16744;DHT22;71724;-33.900;151.182;2024-02-04T14:21:16;27.00;79.60
16744;DHT22;71724;-33.900;151.182;2024-02-04T14:23:44;27.00;79.60
16744;DHT22;71724;-33.900;151.182;2024-02-04T14:26:18;27.00;79.60
16744;DHT22;71724;-33.900;151.182;2024-02-04T14:28:45;27.00;79.70
16744;DHT22;71724;-33.900;151.182;2024-02-04T14:31:13;26.90;79.70
16744;DHT22;71724;-33.900;151.182;2024-02-04T14:33:41;26.90;79.70
16744;DHT22;71724;-33.900;151.182;2024-02-04T14:36:08;26.90;79.80
16744;DHT22;71724;-33.900;151.182;2024-02-04T14:38:36;26.90;79.70
16744;DHT22;71724;-33.900;151.182;2024-02-04T14:41:05;26.90;79.80
16744;DHT22;71724;-33.900;151.182;2024-02-04T14:43:33;26.90;79.70
16744;DHT22;71724;-33.900;151.182;2024-02-04T14:46:00;26.90;79.70
16744;DHT22;71724;-33.900;151.182;2024-02-04T14:48:28;26.90;79.70
16744;DHT22;71724;-33.900;151.182;2024-02-04T14:50:56;26.90;79.60
16744;DHT22;71724;-33.900;151.182;2024-02-04T14:53:25;26.90;79.60
16744;DHT22;71724;-33.900;151.182;2024-02-04T14:55:53;26.90;79.50
16744;DHT22;71724;-33.900;151.182;2024-02-04T14:58:23;26.90;79.50
16744;DHT22;71724;-33.900;151.182;2024-02-04T15:00:50;26.90;79.50
16744;DHT22;71724;-33.900;151.182;2024-02-04T15:03:18;26.90;79.50
16744;DHT22;71724;-33.900;151.182;2024-02-04T15:05:45;26.90;79.70
16744;DHT22;71724;-33.900;151.182;2024-02-04T15:08:12;26.90;79.80